Flight Track Log - Related Links

Times and Time Zones

All times are in EDT time to prevent confusion due to time zone crossing. See the SWA268 flight status page for this flight to view local times or setup timezone preferences in your user account.

Time Position Orientation Groundspeed Altitude Reporting Facility
EDT Latitude Longitude Course Direction KTS MPH feet Rate Location/Type
12:44PM 37.3833 -121.9500 338° Northwest 166 191 900  Level Northern Cal TRACON
12:45PM 37.4167 -121.9667 338° Northwest 212 244 2,800 1,950 Climbing Northern Cal TRACON
12:46PM 37.4167 -121.9000 90° East 236 272 4,800 2,023 Climbing Northern Cal TRACON
12:48PM 37.3181 -121.7969 140° Southeast 265 305 8,700 2,000 Climbing Oakland Center
12:49PM 37.2453 -121.7511 153° Southeast 288 331 10,700 2,195 Climbing Oakland Center
12:50PM 37.1633 -121.7003 154° Southeast 325 374 13,200 2,390 Climbing Oakland Center
12:51PM 37.0742 -121.6439 153° Southeast 338 389 15,600 2,195 Climbing Oakland Center
12:52PM 37.0003 -121.5675 140° Southeast 347 399 17,700 1,902 Climbing Oakland Center
12:53PM 36.9289 -121.4792 135° Southeast 360 414 19,500 1,610 Climbing Oakland Center
12:54PM 36.8567 -121.3875 135° Southeast 368 423 21,000 1,610 Climbing Oakland Center
12:55PM 36.7806 -121.3022 138° Southeast 383 441 22,800 1,805 Climbing Oakland Center
12:56PM 36.7014 -121.2108 137° Southeast 388 447 24,700 1,902 Climbing Oakland Center
12:57PM 36.6200 -121.1103 135° Southeast 409 471 26,700 2,000 Climbing Oakland Center
12:58PM 36.5197 -120.9964 138° Southeast 410 472 28,800 1,659 Climbing Oakland Center
12:59PM 36.4328 -120.8922 136° Southeast 430 495 30,100 1,805 Climbing Oakland Center
01:00PM 36.3472 -120.7861 135° Southeast 434 499 32,500 1,951 Climbing Oakland Center
01:01PM 36.2614 -120.6903 138° Southeast 419 482 34,100 1,463 Climbing Oakland Center
01:02PM 36.1756 -120.5894 137° Southeast 424 488 35,500 1,415 Climbing Oakland Center
01:03PM 36.0900 -120.4892 137° Southeast 424 488 37,000 732 Climbing Oakland Center
01:04PM 36.0039 -120.3889 137° Southeast 425 489 37,000  Level Oakland Center
01:05PM 35.9169 -120.2897 137° Southeast 425 489 37,000  Level Oakland Center
01:06PM 35.8311 -120.1892 136° Southeast 424 488 37,000  Level Oakland Center
01:07PM 35.7264 -120.0686 137° Southeast 426 490 37,000  Level Oakland Center
01:08PM 35.6381 -119.9697 138° Southeast 427 491 37,000  Level Oakland Center
01:09PM 35.5414 -119.8872 145° Southeast 420 483 37,000  Level Oakland Center
01:10PM 35.4450 -119.8042 145° Southeast 421 484 37,000  Level Oakland Center
01:11PM 35.3489 -119.7211 145° Southeast 420 483 37,000  Level Oakland Center
01:12PM 35.2533 -119.6386 145° Southeast 419 482 37,000  Level Oakland Center
01:13PM 35.1569 -119.5567 145° Southeast 420 483 37,000  Level Oakland Center
01:14PM 35.0611 -119.4742 145° Southeast 420 483 37,000 -976 Level Oakland Center
01:15PM 34.9642 -119.3908 145° Southeast 425 489 35,000 -2,683 Descending Oakland Center
01:16PM 34.8631 -119.3053 145° Southeast 437 503 31,500 -3,612 Descending Oakland Center
01:17PM 34.7811 -119.2361 145° Southeast 445 512 28,800 -3,146 Descending Los Angeles Center
01:18PM 34.6833 -119.1522 145° Southeast 434 499 26,100 -2,640 Descending Los Angeles Center
01:19PM 34.5781 -119.0681 147° Southeast 422 486 23,300 -2,592 Descending Los Angeles Center
01:20PM 34.4894 -118.9925 145° Southeast 392 451 20,700 -2,419 Descending Los Angeles Center
01:21PM 34.4022 -118.9211 146° Southeast 379 436 18,300 -2,532 Descending Los Angeles Center
01:23PM 34.2500 -118.8500 159° South 353 406 14,200 -2,710 Descending Southern California TRACON
01:23PM 34.2031 -118.8261 157° South 346 398 12,700 -1,979 Descending Los Angeles Center
01:24PM 34.1169 -118.7942 163° South 325 374 11,100 -1,355 Descending Los Angeles Center
01:25PM 34.0442 -118.7528 155° Southeast 292 336 9,900 -581 Descending Los Angeles Center
01:26PM 34.0286 -118.6522 101° East 289 333 9,900 -624 Level Los Angeles Center
01:27PM 34.0197 -118.5564 96° East 287 330 8,600 -1,392 Descending Los Angeles Center
01:28PM 34.0103 -118.4561 96° East 280 322 7,000 -1,016 Descending Los Angeles Center
01:30PM 34.0236 -118.3875 77° East 264 304 6,500 -878 Descending Los Angeles Center
01:31PM 34.0358 -118.3094 79° East 245 282 5,200 -1,065 Descending Los Angeles Center
01:32PM 34.0169 -118.2464 110° East 211 243 4,300 -1,056 Descending Los Angeles Center
01:33PM 33.9758 -118.2756 210° Southwest 191 220 3,000 -1,403 Descending Los Angeles Center
01:34PM 33.9583 -118.3233 246° West 173 199 1,400 -1,104 Descending Los Angeles Center
01:35PM 33.9547 -118.3686 265° West 151 174 700 -624 Descending Los Angeles Center
01:36PM 33.9494 -118.4153 262° West 141 162 100 -581 Descending Los Angeles Center
01:38PM 33.9425 -118.4081 228° Southwest  Level Estimated

Login

Don't have an account? Register now (free) for customized features, flight alerts, and more!